Loudonville, NY (12211)

9:50 AM EDT on July 23, 2016 (GMT -0400)
NYS Harriman Office Campus | | Change Station

Elev 259 ft 42.68 °N, 73.81 °W | Updated 16 seconds ago

Partly Cloudy
Partly Cloudy
80.9 °F
Feels Like 82 °F
N
8.0
Wind Variable Wind from North
Gusts 16.0 mph

Today
High -- | Low -- °F
--% Chance of Precip.
Yesterday
High -- | Low -- °F
Precip. -- in
Pressure 29.81 in
Visibility 10.0 miles
Clouds Few 9000 ft
Few 12000 ft
Heat Index 82 °F
Dew Point 64 °F
Humidity 56%
Rainfall 0.00 in
Snow Depth Not available.
5:38 AM 8:24 PM
Waning Gibbous, 85% visible
METAR KALB 231251Z 29012KT 10SM FEW090 FEW120 26/17 A2982 RMK AO2 SLP095 T02610167
Pressure 29.81 in
Visibility 10.0 miles
Clouds Few 9000 ft
Few 12000 ft
Heat Index 82 °F
Dew Point 64 °F
Humidity 56%
Rainfall 0.00 in
Snow Depth Not available.
5:38 AM 8:24 PM
Waning Gibbous, 85% visible
METAR KALB 231251Z 29012KT 10SM FEW090 FEW120 26/17 A2982 RMK AO2 SLP095 T02610167

10-Day Weather Forecast

Almanac

Astronomy

Jul. 23, 2016 Rise Set
Actual Time
Civil Twilight
Nautical Twilight
Astronomical Twilight
Moon
Length of Visible Light
Length of Day
Tomorrow will be .
, % of the Moon is Illuminated

Today's Extremes

State Highs State Lows

Community

WunderPhotos

Upload Photos

1,926,818 photos uploaded!

WunderBlog® & News

Nearby

Air Quality

  Air Quality AQ Index Pollutant
Not available.

Snow Depth

Station Depth Elevation

Earthquake Activity

City Distance Mag. Time & Date
Minimum magnitude displayed is 2.5.

Coastal Water Temperatures

Place Temperature

Stations

Nearby Weather Stations

Station Location Temp. Windchill Dew Point Humidity Wind Precip. Elev Updated Type
                   

Watches & Warnings

There are currently no watches in effect.